WetterOnline ( https://www.wetteronline.de )

Wetter aktuell Alfeld

Aktuelles Wetter: Alfeld (148m)

6-stündlich | Neueste Meldungen
Ortszeit Temperatur Wetter
Do, 22.04. 20:00 8.3° C wolkig
Do, 22.04. 14:00 8.5° C bewölkt
Do, 22.04. 8:00 4.7° C bedeckt
Do, 22.04. 2:00 3.3° C wolkig
Mi, 21.04. 20:00 9.2° C bewölkt
Mi, 21.04. 14:00 15.1° C wolkenlos
Mi, 21.04. 8:00 3.7° C wolkenlos
Mi, 21.04. 2:00 5.1° C wolkenlos
Ortszeit Temperatur Wetter
Fr, 23.04. 0:30 3.0° C wolkenlos
Fr, 23.04. 0:20 3.0° C wolkenlos
Fr, 23.04. 0:10 3.3° C wolkenlos
Fr, 23.04. 0:00 4.0° C wolkenlos
Do, 22.04. 23:50 4.0° C wolkenlos
Do, 22.04. 23:40 4.6° C wolkenlos
Do, 22.04. 23:30 5.0° C fast wolkenlos
Do, 22.04. 23:00 5.6° C leicht bewölkt
Do, 22.04. 22:30 5.9° C leicht bewölkt
Do, 22.04. 22:00 5.4° C wolkig
Do, 22.04. 21:30 6.7° C wolkig
Do, 22.04. 21:00 7.1° C wolkig
Ortszeit Relative Feuchte Sichtweite
Do, 22.04. 20:00 60% 55 km
Do, 22.04. 14:00 52% 35 km
Do, 22.04. 8:00 65% 35 km
Do, 22.04. 2:00 73% 30 km
Mi, 21.04. 20:00 65% 40 km
Mi, 21.04. 14:00 39% >70 km
Mi, 21.04. 8:00 91% 30 km
Mi, 21.04. 2:00 84% 40 km
Ortszeit Relative Feuchte Sichtweite
Fr, 23.04. 0:30 83% 40 km
Fr, 23.04. 0:20 83% -
Fr, 23.04. 0:10 81% -
Fr, 23.04. 0:00 78% 45 km
Do, 22.04. 23:50 78% -
Do, 22.04. 23:40 76% -
Do, 22.04. 23:30 75% 40 km
Do, 22.04. 23:00 72% 50 km
Do, 22.04. 22:30 70% 45 km
Do, 22.04. 22:00 74% 35 km
Do, 22.04. 21:30 67% 40 km
Do, 22.04. 21:00 66% 45 km
Ortszeit Niederschlagsmenge Niederschlagsart
Do, 22.04. 20:00 0.0 l/m2 in 12 Std. -
Do, 22.04. 14:00 0.0 l/m2 in 6 Std. -
Do, 22.04. 8:00 0.0 l/m2 in 12 Std. -
Do, 22.04. 2:00 0.0 l/m2 in 6 Std. -
Mi, 21.04. 20:00 0.0 l/m2 in 12 Std. -
Mi, 21.04. 14:00 0.0 l/m2 in 6 Std. -
Mi, 21.04. 8:00 0.0 l/m2 in 12 Std. -
Mi, 21.04. 2:00 0.0 l/m2 in 6 Std. -
Ortszeit Niederschlagsmenge Niederschlagsart
Fr, 23.04. 0:30 0.0 l/m2 in 1 Std. -
Fr, 23.04. 0:20 keine Meldung -
Fr, 23.04. 0:10 keine Meldung -
Fr, 23.04. 0:00 0.0 l/m2 in 1 Std. -
Do, 22.04. 23:50 keine Meldung -
Do, 22.04. 23:40 keine Meldung -
Do, 22.04. 23:30 0.0 l/m2 in 1 Std. -
Do, 22.04. 23:00 0.0 l/m2 in 1 Std. -
Do, 22.04. 22:30 0.0 l/m2 in 1 Std. -
Do, 22.04. 22:00 0.0 l/m2 in 1 Std. -
Do, 22.04. 21:30 0.0 l/m2 in 1 Std. -
Do, 22.04. 21:00 0.0 l/m2 in 1 Std. -
Ortszeit Stärke Spitze Richtung
km/h Bft. km/h Grad Sektor
Do, 22.04. 20:00 13 3 44 330° NW
Do, 22.04. 14:00 20 4 44 300° NW
Do, 22.04. 8:00 15 3 26 280° W
Do, 22.04. 2:00 11 2 40 310° NW
Mi, 21.04. 20:00 24 4 41 340° N
Mi, 21.04. 14:00 13 3 26 330° NW
Mi, 21.04. 8:00 7 2 11 120° SO
Mi, 21.04. 2:00 0 0 11 - -
Ortszeit Stärke Spitze Richtung
km/h Bft. km/h Grad Sektor
Fr, 23.04. 0:30 4 1 7 270° W
Fr, 23.04. 0:20 4 1 - 270° W
Fr, 23.04. 0:10 4 1 - 260° W
Fr, 23.04. 0:00 7 2 14 290° W
Do, 22.04. 23:50 7 2 - 290° W
Do, 22.04. 23:40 9 2 - 300° NW
Do, 22.04. 23:30 11 2 14 310° NW
Do, 22.04. 23:00 11 2 18 310° NW
Do, 22.04. 22:30 11 2 18 300° NW
Do, 22.04. 22:00 7 2 19 280° W
Do, 22.04. 21:30 7 2 11 300° NW
Do, 22.04. 21:00 7 2 22 290° W
Ortszeit Untergrenze Bedeckung Gattung
total tief tief mittel hoch
Do, 22.04. 20:00 1500 m 6/8 6/8 - - -
Do, 22.04. 14:00 1350 m 7/8 7/8 - - -
Do, 22.04. 8:00 1200 m 8/8 8/8 - - -
Do, 22.04. 2:00 1110 m 7/8 1/8 - - -
Mi, 21.04. 20:00 1110 m 7/8 7/8 - - -
Mi, 21.04. 14:00 - 0/8 0/8 - - -
Mi, 21.04. 8:00 - 0/8 0/8 - - -
Mi, 21.04. 2:00 - 0/8 0/8 - - -
Ortszeit Bedeckungsgrad in Achtel und Wolkenuntergrenze
Fr, 23.04. 0:30 keine Wolken
Fr, 23.04. 0:20 keine Wolken
Fr, 23.04. 0:10 keine Wolken
Fr, 23.04. 0:00 keine Wolken
Do, 22.04. 23:50 keine Wolken
Do, 22.04. 23:40 keine Wolken
Do, 22.04. 23:30 1(1140m)
Do, 22.04. 23:00 3(1200m)
Do, 22.04. 22:30 3(1380m) 3(1410m)
Do, 22.04. 22:00 5(1500m)
Do, 22.04. 21:30 6(1500m)
Do, 22.04. 21:00 3(1380m) 6(1500m)
Ortszeit Luftdruck NN (hPa) Tendenz (hPa in 3 Std.)
Do, 22.04. 20:00 1025 + 1,1
Do, 22.04. 14:00 1024 + 0,2
Do, 22.04. 8:00 1023 + 0,8
Do, 22.04. 2:00 1022 + 1,1
Mi, 21.04. 20:00 1018 + 1,9
Mi, 21.04. 14:00 1016 - 0,3
Mi, 21.04. 8:00 1017 + 0,3
Mi, 21.04. 2:00 1017 + 0,2
Ortszeit Luftdruck NN (hPa) Tendenz (hPa in 3 Std.)
Fr, 23.04. 0:30 1027 + 0,8
Fr, 23.04. 0:20 1027 keine Meldung
Fr, 23.04. 0:10 1026 keine Meldung
Fr, 23.04. 0:00 1026 + 0,8
Do, 22.04. 23:50 1026 keine Meldung
Do, 22.04. 23:40 1026 keine Meldung
Do, 22.04. 23:30 1026 + 1,1
Do, 22.04. 23:00 1026 + 1,3
Do, 22.04. 22:30 1026 + 1,2
Do, 22.04. 22:00 1026 + 1,3
Do, 22.04. 21:30 1025 + 1,2
Do, 22.04. 21:00 1025 + 1,2
Ortszeit Schneehöhe (cm)
Do, 22.04. 20:00 0
Do, 22.04. 14:00 0
Do, 22.04. 8:00 0
Do, 22.04. 2:00 0
Mi, 21.04. 20:00 0
Mi, 21.04. 14:00 0
Mi, 21.04. 8:00 0
Mi, 21.04. 2:00 0
Ortszeit Schneehöhe (cm)
Fr, 23.04. 0:30 0
Fr, 23.04. 0:20 0
Fr, 23.04. 0:10 0
Fr, 23.04. 0:00 0
Do, 22.04. 23:50 0
Do, 22.04. 23:40 0
Do, 22.04. 23:30 0
Do, 22.04. 23:00 0
Do, 22.04. 22:30 0
Do, 22.04. 22:00 0
Do, 22.04. 21:30 0
Do, 22.04. 21:00 0
Link zu dieser Seite / Seite empfehlen

Das Wetter in ...